sensor_id;sensor_type;location;lat;lon;timestamp;pressure;altitude;pressure_sealevel;temperature;humidity
13581;BME280;6861;46.170;7.222;2022-08-03T00:01:44;96015.69;;;28.30;33.04
13581;BME280;6861;46.170;7.222;2022-08-03T00:04:11;96019.53;;;28.29;32.49
13581;BME280;6861;46.170;7.222;2022-08-03T00:06:38;96021.81;;;28.27;32.59
13581;BME280;6861;46.170;7.222;2022-08-03T00:09:05;96023.31;;;28.21;33.30
13581;BME280;6861;46.170;7.222;2022-08-03T00:11:32;96024.06;;;28.18;33.06
13581;BME280;6861;46.170;7.222;2022-08-03T00:13:59;96022.50;;;28.13;32.99
13581;BME280;6861;46.170;7.222;2022-08-03T00:16:27;96020.16;;;28.08;33.07
13581;BME280;6861;46.170;7.222;2022-08-03T00:18:54;96023.97;;;28.03;33.09
13581;BME280;6861;46.170;7.222;2022-08-03T00:21:21;96017.44;;;28.04;33.62
13581;BME280;6861;46.170;7.222;2022-08-03T00:23:48;96023.97;;;28.03;33.69
13581;BME280;6861;46.170;7.222;2022-08-03T00:26:15;96024.34;;;28.02;33.69
13581;BME280;6861;46.170;7.222;2022-08-03T00:28:42;96015.09;;;27.96;32.98
13581;BME280;6861;46.170;7.222;2022-08-03T00:31:09;96017.75;;;27.89;33.32
13581;BME280;6861;46.170;7.222;2022-08-03T00:33:37;96016.19;;;27.84;33.82
13581;BME280;6861;46.170;7.222;2022-08-03T00:36:04;96010.78;;;27.84;33.14
13581;BME280;6861;46.170;7.222;2022-08-03T00:38:31;96013.50;;;27.84;33.63
13581;BME280;6861;46.170;7.222;2022-08-03T00:40:58;96020.81;;;27.87;33.00
13581;BME280;6861;46.170;7.222;2022-08-03T00:43:25;96019.25;;;27.86;33.63
13581;BME280;6861;46.170;7.222;2022-08-03T00:45:52;96023.50;;;27.87;33.33
13581;BME280;6861;46.170;7.222;2022-08-03T00:48:20;96025.09;;;27.95;33.94
13581;BME280;6861;46.170;7.222;2022-08-03T00:50:48;96017.81;;;27.99;34.18
13581;BME280;6861;46.170;7.222;2022-08-03T00:53:16;96014.75;;;28.04;33.69
13581;BME280;6861;46.170;7.222;2022-08-03T00:55:43;96020.16;;;28.08;33.64
13581;BME280;6861;46.170;7.222;2022-08-03T00:58:11;96022.47;;;28.10;34.05
13581;BME280;6861;46.170;7.222;2022-08-03T01:00:39;96018.25;;;28.08;34.22
13581;BME280;6861;46.170;7.222;2022-08-03T01:03:07;96008.22;;;28.05;33.58
13581;BME280;6861;46.170;7.222;2022-08-03T01:05:39;96007.84;;;28.03;33.67
13581;BME280;6861;46.170;7.222;2022-08-03T01:08:18;96020.09;;;27.97;34.21
13581;BME280;6861;46.170;7.222;2022-08-03T01:10:53;96023.16;;;27.92;33.79
13581;BME280;6861;46.170;7.222;2022-08-03T01:13:28;96020.81;;;27.87;34.32
13581;BME280;6861;46.170;7.222;2022-08-03T01:16:00;96031.53;;;27.84;34.26
13581;BME280;6861;46.170;7.222;2022-08-03T01:18:35;96020.00;;;27.80;34.33
13581;BME280;6861;46.170;7.222;2022-08-03T01:21:09;96016.13;;;27.77;33.95
13581;BME280;6861;46.170;7.222;2022-08-03T01:24:04;96013.81;;;27.72;34.52
13581;BME280;6861;46.170;7.222;2022-08-03T01:26:54;96015.31;;;27.66;33.93
13581;BME280;6861;46.170;7.222;2022-08-03T01:29:47;96016.81;;;27.60;34.25
13581;BME280;6861;46.170;7.222;2022-08-03T01:32:19;96019.06;;;27.58;33.70
13581;BME280;6861;46.170;7.222;2022-08-03T01:34:49;96017.50;;;27.53;34.44
13581;BME280;6861;46.170;7.222;2022-08-03T01:37:23;96012.84;;;27.47;34.43
13581;BME280;6861;46.170;7.222;2022-08-03T01:39:54;96008.19;;;27.43;34.55
13581;BME280;6861;46.170;7.222;2022-08-03T01:42:23;96007.81;;;27.41;34.54
13581;BME280;6861;46.170;7.222;2022-08-03T01:44:53;96008.94;;;27.40;34.39
13581;BME280;6861;46.170;7.222;2022-08-03T01:47:23;96006.22;;;27.37;34.18
13581;BME280;6861;46.170;7.222;2022-08-03T01:49:52;96013.53;;;27.36;34.18
13581;BME280;6861;46.170;7.222;2022-08-03T01:52:23;96001.56;;;27.30;34.55
13581;BME280;6861;46.170;7.222;2022-08-03T01:54:51;96004.59;;;27.25;34.05
13581;BME280;6861;46.170;7.222;2022-08-03T01:57:20;96009.16;;;27.21;34.20
13581;BME280;6861;46.170;7.222;2022-08-03T01:59:49;96011.06;;;27.17;34.41
13581;BME280;6861;46.170;7.222;2022-08-03T02:02:20;96015.66;;;27.17;34.27
13581;BME280;6861;46.170;7.222;2022-08-03T02:04:48;96012.97;;;27.17;34.30
13581;BME280;6861;46.170;7.222;2022-08-03T02:07:16;96014.09;;;27.16;34.76
13581;BME280;6861;46.170;7.222;2022-08-03T02:09:45;96015.63;;;27.13;35.11
13581;BME280;6861;46.170;7.222;2022-08-03T02:12:14;96014.81;;;27.09;35.15
13581;BME280;6861;46.170;7.222;2022-08-03T02:14:43;96015.56;;;27.06;35.02
13581;BME280;6861;46.170;7.222;2022-08-03T02:17:13;96011.69;;;27.03;34.61
13581;BME280;6861;46.170;7.222;2022-08-03T02:19:43;96018.56;;;27.01;35.25
13581;BME280;6861;46.170;7.222;2022-08-03T02:22:12;96015.06;;;26.97;35.15
13581;BME280;6861;46.170;7.222;2022-08-03T02:24:39;96015.38;;;26.92;35.12
13581;BME280;6861;46.170;7.222;2022-08-03T02:27:12;96012.28;;;26.86;35.52
13581;BME280;6861;46.170;7.222;2022-08-03T02:29:43;96013.78;;;26.84;35.25
13581;BME280;6861;46.170;7.222;2022-08-03T02:32:15;96016.41;;;26.76;35.34
13581;BME280;6861;46.170;7.222;2022-08-03T02:34:46;96018.28;;;26.72;35.70
13581;BME280;6861;46.170;7.222;2022-08-03T02:37:17;96013.66;;;26.69;35.33
13581;BME280;6861;46.170;7.222;2022-08-03T02:39:46;96010.16;;;26.65;35.29
13581;BME280;6861;46.170;7.222;2022-08-03T02:42:14;96008.97;;;26.63;35.25
13581;BME280;6861;46.170;7.222;2022-08-03T02:44:46;96007.34;;;26.55;35.36
13581;BME280;6861;46.170;7.222;2022-08-03T02:47:14;96016.50;;;26.50;35.88
13581;BME280;6861;46.170;7.222;2022-08-03T02:49:47;96013.00;;;26.46;35.59
13581;BME280;6861;46.170;7.222;2022-08-03T02:52:16;96014.94;;;26.49;35.91
13581;BME280;6861;46.170;7.222;2022-08-03T02:54:45;96005.31;;;26.44;35.67
13581;BME280;6861;46.170;7.222;2022-08-03T02:57:14;96014.94;;;26.49;35.40
13581;BME280;6861;46.170;7.222;2022-08-03T02:59:43;96020.31;;;26.49;35.65
13581;BME280;6861;46.170;7.222;2022-08-03T03:02:12;96013.41;;;26.48;35.76
13581;BME280;6861;46.170;7.222;2022-08-03T03:04:41;96017.22;;;26.47;35.58
13581;BME280;6861;46.170;7.222;2022-08-03T03:07:11;96013.34;;;26.44;35.51
13581;BME280;6861;46.170;7.222;2022-08-03T03:09:39;96007.94;;;26.41;36.11
13581;BME280;6861;46.170;7.222;2022-08-03T03:12:07;96014.00;;;26.34;36.05
13581;BME280;6861;46.170;7.222;2022-08-03T03:14:36;96014.66;;;26.28;36.13
13581;BME280;6861;46.170;7.222;2022-08-03T03:17:05;96014.97;;;26.23;36.26
13581;BME280;6861;46.170;7.222;2022-08-03T03:19:32;96014.97;;;26.23;36.34
13581;BME280;6861;46.170;7.222;2022-08-03T03:22:01;96017.56;;;26.16;36.35
13581;BME280;6861;46.170;7.222;2022-08-03T03:24:30;96017.47;;;26.08;36.09
13581;BME280;6861;46.170;7.222;2022-08-03T03:26:58;96010.88;;;26.02;36.53
13581;BME280;6861;46.170;7.222;2022-08-03T03:29:26;96011.22;;;25.97;36.75
13581;BME280;6861;46.170;7.222;2022-08-03T03:31:53;96016.91;;;25.92;36.42
13581;BME280;6861;46.170;7.222;2022-08-03T03:34:21;96020.66;;;25.88;36.58
13581;BME280;6861;46.170;7.222;2022-08-03T03:36:48;96015.97;;;25.81;36.82
13581;BME280;6861;46.170;7.222;2022-08-03T03:39:16;96020.16;;;25.78;37.10
13581;BME280;6861;46.170;7.222;2022-08-03T03:41:45;96027.78;;;25.76;37.17
13581;BME280;6861;46.170;7.222;2022-08-03T03:44:12;96020.16;;;25.78;37.17
13581;BME280;6861;46.170;7.222;2022-08-03T03:46:38;96026.38;;;25.86;37.48
13581;BME280;6861;46.170;7.222;2022-08-03T03:49:05;96028.66;;;25.84;37.64
13581;BME280;6861;46.170;7.222;2022-08-03T03:51:32;96026.28;;;25.79;37.83
13581;BME280;6861;46.170;7.222;2022-08-03T03:54:01;96024.72;;;25.78;37.85
13581;BME280;6861;46.170;7.222;2022-08-03T03:56:29;96028.53;;;25.77;37.86
13581;BME280;6861;46.170;7.222;2022-08-03T03:58:57;96035.81;;;25.76;37.68
13581;BME280;6861;46.170;7.222;2022-08-03T04:01:24;96042.31;;;25.75;37.67
13581;BME280;6861;46.170;7.222;2022-08-03T04:03:51;96038.84;;;25.75;37.52
13581;BME280;6861;46.170;7.222;2022-08-03T04:06:18;96040.00;;;25.74;37.67
13581;BME280;6861;46.170;7.222;2022-08-03T04:09:05;96042.25;;;25.72;37.67
13581;BME280;6861;46.170;7.222;2022-08-03T04:11:53;96043.38;;;25.71;37.99
13581;BME280;6861;46.170;7.222;2022-08-03T04:14:24;96037.63;;;25.69;37.91
13581;BME280;6861;46.170;7.222;2022-08-03T04:16:56;96040.66;;;25.67;38.04
13581;BME280;6861;46.170;7.222;2022-08-03T04:19:28;96046.38;;;25.66;38.27
13581;BME280;6861;46.170;7.222;2022-08-03T04:21:59;96045.09;;;25.60;38.23
13581;BME280;6861;46.170;7.222;2022-08-03T04:24:33;96050.75;;;25.55;38.29
13581;BME280;6861;46.170;7.222;2022-08-03T04:27:03;96047.97;;;25.47;38.09
13581;BME280;6861;46.170;7.222;2022-08-03T04:29:34;96051.25;;;25.37;38.41
13581;BME280;6861;46.170;7.222;2022-08-03T04:32:02;96049.94;;;25.28;38.43
13581;BME280;6861;46.170;7.222;2022-08-03T04:34:31;96048.19;;;25.16;38.92
13581;BME280;6861;46.170;7.222;2022-08-03T04:36:59;96051.50;;;25.06;39.15
13581;BME280;6861;46.170;7.222;2022-08-03T04:39:30;96051.38;;;24.99;39.32
13581;BME280;6861;46.170;7.222;2022-08-03T04:42:00;96061.66;;;24.97;39.47
13581;BME280;6861;46.170;7.222;2022-08-03T04:44:29;96062.91;;;25.03;39.40
13581;BME280;6861;46.170;7.222;2022-08-03T04:46:58;96059.53;;;25.06;39.24
13581;BME280;6861;46.170;7.222;2022-08-03T04:49:26;96067.19;;;25.07;39.19
13581;BME280;6861;46.170;7.222;2022-08-03T04:51:54;96059.94;;;25.08;39.26
13581;BME280;6861;46.170;7.222;2022-08-03T04:54:21;96060.28;;;25.06;39.30
13581;BME280;6861;46.170;7.222;2022-08-03T04:56:48;96067.13;;;25.04;39.29
13581;BME280;6861;46.170;7.222;2022-08-03T04:59:15;96068.63;;;25.01;39.41
13581;BME280;6861;46.170;7.222;2022-08-03T05:01:43;96066.66;;;24.98;39.59
13581;BME280;6861;46.170;7.222;2022-08-03T05:04:11;96072.34;;;24.97;39.87
13581;BME280;6861;46.170;7.222;2022-08-03T05:06:38;96070.72;;;24.92;39.94
13581;BME280;6861;46.170;7.222;2022-08-03T05:09:05;96069.22;;;24.95;39.95
13581;BME280;6861;46.170;7.222;2022-08-03T05:11:32;96076.00;;;24.89;40.26
13581;BME280;6861;46.170;7.222;2022-08-03T05:13:59;96077.00;;;24.80;40.59
13581;BME280;6861;46.170;7.222;2022-08-03T05:16:26;96082.69;;;24.79;40.54
13581;BME280;6861;46.170;7.222;2022-08-03T05:18:53;96080.44;;;24.81;40.43
13581;BME280;6861;46.170;7.222;2022-08-03T05:21:21;96083.19;;;24.84;40.64
13581;BME280;6861;46.170;7.222;2022-08-03T05:23:48;96085.16;;;24.88;40.78
13581;BME280;6861;46.170;7.222;2022-08-03T05:26:15;96087.41;;;24.86;40.58
13581;BME280;6861;46.170;7.222;2022-08-03T05:28:42;96090.09;;;24.86;40.84
13581;BME280;6861;46.170;7.222;2022-08-03T05:31:09;96092.06;;;24.89;40.91
13581;BME280;6861;46.170;7.222;2022-08-03T05:33:37;96093.63;;;24.90;40.85
13581;BME280;6861;46.170;7.222;2022-08-03T05:36:05;96094.03;;;24.92;40.52
13581;BME280;6861;46.170;7.222;2022-08-03T05:38:33;96093.63;;;24.90;40.46
13581;BME280;6861;46.170;7.222;2022-08-03T05:41:01;96084.47;;;24.91;40.53
13581;BME280;6861;46.170;7.222;2022-08-03T05:43:28;96088.25;;;24.90;40.59
13581;BME280;6861;46.170;7.222;2022-08-03T05:45:56;96085.16;;;24.88;40.71
13581;BME280;6861;46.170;7.222;2022-08-03T05:48:24;96075.88;;;24.81;40.90
13581;BME280;6861;46.170;7.222;2022-08-03T05:50:50;96088.53;;;24.84;40.83
13581;BME280;6861;46.170;7.222;2022-08-03T05:53:17;96095.03;;;24.83;40.79
13581;BME280;6861;46.170;7.222;2022-08-03T05:55:46;96087.41;;;24.86;40.69
13581;BME280;6861;46.170;7.222;2022-08-03T05:58:12;96092.00;;;24.85;40.76
13581;BME280;6861;46.170;7.222;2022-08-03T06:00:39;96090.44;;;24.84;41.14
13581;BME280;6861;46.170;7.222;2022-08-03T06:03:06;96084.75;;;24.86;40.88
13581;BME280;6861;46.170;7.222;2022-08-03T06:05:33;96097.41;;;24.89;40.98
13581;BME280;6861;46.170;7.222;2022-08-03T06:08:01;96083.63;;;24.87;40.79
13581;BME280;6861;46.170;7.222;2022-08-03T06:10:28;96089.66;;;24.83;40.69
13581;BME280;6861;46.170;7.222;2022-08-03T06:12:56;96091.50;;;24.79;40.72
13581;BME280;6861;46.170;7.222;2022-08-03T06:15:23;96089.66;;;24.83;40.67
13581;BME280;6861;46.170;7.222;2022-08-03T06:17:50;96088.28;;;25.09;40.38
13581;BME280;6861;46.170;7.222;2022-08-03T06:20:19;96099.28;;;25.49;40.06
13581;BME280;6861;46.170;7.222;2022-08-03T06:22:46;96086.31;;;25.97;39.36
13581;BME280;6861;46.170;7.222;2022-08-03T06:25:14;96080.81;;;26.43;39.00
13581;BME280;6861;46.170;7.222;2022-08-03T06:27:41;96079.84;;;26.92;38.19
13581;BME280;6861;46.170;7.222;2022-08-03T06:30:10;96079.16;;;27.35;37.36
13581;BME280;6861;46.170;7.222;2022-08-03T06:32:38;96078.34;;;27.72;37.26
13581;BME280;6861;46.170;7.222;2022-08-03T06:35:06;96082.06;;;28.12;36.76
13581;BME280;6861;46.170;7.222;2022-08-03T06:37:41;96083.84;;;28.48;36.01
13581;BME280;6861;46.170;7.222;2022-08-03T06:40:10;96083.91;;;28.69;36.12
13581;BME280;6861;46.170;7.222;2022-08-03T06:42:37;96089.75;;;28.82;35.89
13581;BME280;6861;46.170;7.222;2022-08-03T06:45:05;96094.41;;;28.92;35.55
13581;BME280;6861;46.170;7.222;2022-08-03T06:47:34;96089.06;;;28.99;35.45
13581;BME280;6861;46.170;7.222;2022-08-03T06:50:01;96087.53;;;29.09;34.95
13581;BME280;6861;46.170;7.222;2022-08-03T06:52:29;96072.16;;;29.20;34.51
13581;BME280;6861;46.170;7.222;2022-08-03T06:54:56;96074.50;;;29.32;34.25
13581;BME280;6861;46.170;7.222;2022-08-03T06:57:23;96076.47;;;29.46;34.27
13581;BME280;6861;46.170;7.222;2022-08-03T06:59:49;96074.13;;;29.59;33.81
13581;BME280;6861;46.170;7.222;2022-08-03T07:02:17;96071.81;;;29.68;33.69
13581;BME280;6861;46.170;7.222;2022-08-03T07:04:46;96081.84;;;29.78;34.51
13581;BME280;6861;46.170;7.222;2022-08-03T07:07:13;96077.22;;;29.89;34.46
13581;BME280;6861;46.170;7.222;2022-08-03T07:09:40;96075.31;;;30.00;34.02
13581;BME280;6861;46.170;7.222;2022-08-03T07:12:07;96072.97;;;30.13;33.38
13581;BME280;6861;46.170;7.222;2022-08-03T07:14:34;96068.69;;;30.26;32.92
13581;BME280;6861;46.170;7.222;2022-08-03T07:17:01;96070.94;;;30.39;32.58
13581;BME280;6861;46.170;7.222;2022-08-03T07:19:27;96076.69;;;30.51;32.50
13581;BME280;6861;46.170;7.222;2022-08-03T07:21:56;96067.81;;;30.65;32.12
13581;BME280;6861;46.170;7.222;2022-08-03T07:24:23;96060.81;;;30.75;31.99
13581;BME280;6861;46.170;7.222;2022-08-03T07:26:50;96058.09;;;30.82;32.14
13581;BME280;6861;46.170;7.222;2022-08-03T07:29:17;96067.28;;;30.95;31.30
13581;BME280;6861;46.170;7.222;2022-08-03T07:31:44;96059.50;;;31.04;31.09
13581;BME280;6861;46.170;7.222;2022-08-03T07:34:11;96068.72;;;31.17;30.93
13581;BME280;6861;46.170;7.222;2022-08-03T07:36:38;96064.75;;;31.29;31.41
13581;BME280;6861;46.170;7.222;2022-08-03T07:39:06;96061.59;;;31.41;31.21
13581;BME280;6861;46.170;7.222;2022-08-03T07:41:33;96057.63;;;31.53;30.90
13581;BME280;6861;46.170;7.222;2022-08-03T07:44:00;96058.31;;;31.64;30.29
13581;BME280;6861;46.170;7.222;2022-08-03T07:46:27;96059.41;;;31.77;30.03
13581;BME280;6861;46.170;7.222;2022-08-03T07:48:54;96061.25;;;31.87;29.63
13581;BME280;6861;46.170;7.222;2022-08-03T07:51:21;96060.00;;;31.96;29.36
13581;BME280;6861;46.170;7.222;2022-08-03T07:53:48;96061.09;;;32.05;29.01
13581;BME280;6861;46.170;7.222;2022-08-03T07:56:16;96053.97;;;32.18;29.34
13581;BME280;6861;46.170;7.222;2022-08-03T07:58:44;96052.72;;;32.30;28.87
13581;BME280;6861;46.170;7.222;2022-08-03T08:01:11;96055.69;;;32.39;28.67
13581;BME280;6861;46.170;7.222;2022-08-03T08:03:38;96042.03;;;32.50;28.81
13581;BME280;6861;46.170;7.222;2022-08-03T08:06:05;96045.75;;;32.63;28.54
13581;BME280;6861;46.170;7.222;2022-08-03T08:08:32;96042.50;;;32.75;28.00
13581;BME280;6861;46.170;7.222;2022-08-03T08:10:59;96036.91;;;32.89;28.02
13581;BME280;6861;46.170;7.222;2022-08-03T08:13:27;96032.41;;;33.06;28.53
13581;BME280;6861;46.170;7.222;2022-08-03T08:15:54;96041.16;;;33.17;28.43
13581;BME280;6861;46.170;7.222;2022-08-03T08:18:21;96037.06;;;33.33;28.04
13581;BME280;6861;46.170;7.222;2022-08-03T08:20:49;96029.06;;;33.49;27.64
13581;BME280;6861;46.170;7.222;2022-08-03T08:23:16;96032.66;;;33.66;27.71
13581;BME280;6861;46.170;7.222;2022-08-03T08:25:47;96025.53;;;33.75;27.42
13581;BME280;6861;46.170;7.222;2022-08-03T08:28:16;96017.63;;;33.84;27.28
13581;BME280;6861;46.170;7.222;2022-08-03T08:30:44;96028.63;;;33.97;27.44
13581;BME280;6861;46.170;7.222;2022-08-03T08:33:12;96021.47;;;34.07;27.41
13581;BME280;6861;46.170;7.222;2022-08-03T08:35:39;96023.50;;;34.23;26.92
13581;BME280;6861;46.170;7.222;2022-08-03T08:38:06;96022.97;;;34.31;26.92
13581;BME280;6861;46.170;7.222;2022-08-03T08:40:33;96010.78;;;34.39;27.18
13581;BME280;6861;46.170;7.222;2022-08-03T08:43:01;96009.81;;;34.49;28.01
13581;BME280;6861;46.170;7.222;2022-08-03T08:45:28;95999.84;;;34.63;27.72
13581;BME280;6861;46.170;7.222;2022-08-03T08:47:57;96001.78;;;34.78;27.28
13581;BME280;6861;46.170;7.222;2022-08-03T08:50:27;96000.31;;;34.94;27.03
13581;BME280;6861;46.170;7.222;2022-08-03T08:52:55;95998.22;;;35.01;26.68
13581;BME280;6861;46.170;7.222;2022-08-03T08:55:25;95998.13;;;35.05;26.22
13581;BME280;6861;46.170;7.222;2022-08-03T08:57:58;96000.34;;;35.10;26.19
13581;BME280;6861;46.170;7.222;2022-08-03T09:00:27;96003.75;;;35.14;26.62
13581;BME280;6861;46.170;7.222;2022-08-03T09:02:56;95999.25;;;35.24;26.26
13581;BME280;6861;46.170;7.222;2022-08-03T09:05:23;95990.56;;;35.29;26.46
13581;BME280;6861;46.170;7.222;2022-08-03T09:07:50;95986.44;;;35.40;26.36
13581;BME280;6861;46.170;7.222;2022-08-03T09:10:18;95982.88;;;35.43;26.11
13581;BME280;6861;46.170;7.222;2022-08-03T09:12:48;95976.91;;;35.48;26.04
13581;BME280;6861;46.170;7.222;2022-08-03T09:15:17;95979.84;;;35.54;25.47
13581;BME280;6861;46.170;7.222;2022-08-03T09:17:44;95978.47;;;35.62;25.38
13581;BME280;6861;46.170;7.222;2022-08-03T09:20:13;95984.94;;;35.68;25.09
13581;BME280;6861;46.170;7.222;2022-08-03T09:22:55;95979.31;;;35.75;25.27
13581;BME280;6861;46.170;7.222;2022-08-03T09:25:28;95981.53;;;35.80;25.43
13581;BME280;6861;46.170;7.222;2022-08-03T09:28:03;95971.97;;;35.89;25.64
13581;BME280;6861;46.170;7.222;2022-08-03T09:30:31;95971.38;;;35.97;25.80
13581;BME280;6861;46.170;7.222;2022-08-03T09:32:59;95970.75;;;36.06;25.50
13581;BME280;6861;46.170;7.222;2022-08-03T09:35:28;95970.53;;;36.13;25.41
13581;BME280;6861;46.170;7.222;2022-08-03T09:38:11;95973.06;;;36.20;25.58
13581;BME280;6861;46.170;7.222;2022-08-03T09:40:39;95969.31;;;36.30;26.03
13581;BME280;6861;46.170;7.222;2022-08-03T09:43:06;95968.34;;;36.37;25.94
13581;BME280;6861;46.170;7.222;2022-08-03T09:45:34;95971.94;;;36.47;25.94
13581;BME280;6861;46.170;7.222;2022-08-03T09:48:21;95961.47;;;36.58;25.30
13581;BME280;6861;46.170;7.222;2022-08-03T09:50:50;95959.19;;;36.69;25.34
13581;BME280;6861;46.170;7.222;2022-08-03T09:53:17;95955.09;;;36.77;25.15
13581;BME280;6861;46.170;7.222;2022-08-03T09:55:52;95945.47;;;36.85;25.17
13581;BME280;6861;46.170;7.222;2022-08-03T09:58:22;95944.81;;;36.94;25.01
13581;BME280;6861;46.170;7.222;2022-08-03T10:00:57;95943.84;;;37.00;25.21
13581;BME280;6861;46.170;7.222;2022-08-03T10:03:27;95936.94;;;37.08;25.16
13581;BME280;6861;46.170;7.222;2022-08-03T10:05:55;95932.47;;;37.15;24.97
13581;BME280;6861;46.170;7.222;2022-08-03T10:08:23;95928.34;;;37.23;24.87
13581;BME280;6861;46.170;7.222;2022-08-03T10:10:51;95919.56;;;37.28;24.62
13581;BME280;6861;46.170;7.222;2022-08-03T10:13:21;95915.81;;;37.34;24.55
13581;BME280;6861;46.170;7.222;2022-08-03T10:15:48;95909.81;;;37.39;24.55
13581;BME280;6861;46.170;7.222;2022-08-03T10:18:15;95904.56;;;37.45;24.46
13581;BME280;6861;46.170;7.222;2022-08-03T10:20:45;95904.09;;;37.47;24.74
13581;BME280;6861;46.170;7.222;2022-08-03T10:23:16;95900.50;;;37.50;24.75
13581;BME280;6861;46.170;7.222;2022-08-03T10:25:45;95897.63;;;37.53;24.37
13581;BME280;6861;46.170;7.222;2022-08-03T10:28:15;95893.25;;;37.56;24.41
13581;BME280;6861;46.170;7.222;2022-08-03T10:30:47;95895.09;;;37.59;24.62
13581;BME280;6861;46.170;7.222;2022-08-03T10:33:18;95893.00;;;37.63;24.63
13581;BME280;6861;46.170;7.222;2022-08-03T10:35:46;95878.91;;;37.64;24.37
13581;BME280;6861;46.170;7.222;2022-08-03T10:38:19;95879.22;;;37.66;24.07
13581;BME280;6861;46.170;7.222;2022-08-03T10:40:49;95876.19;;;37.64;24.50
13581;BME280;6861;46.170;7.222;2022-08-03T10:43:20;95873.13;;;37.62;24.61
13581;BME280;6861;46.170;7.222;2022-08-03T10:45:48;95872.38;;;37.62;24.74
13581;BME280;6861;46.170;7.222;2022-08-03T10:48:17;95870.97;;;37.57;24.37
13581;BME280;6861;46.170;7.222;2022-08-03T10:50:45;95867.28;;;37.51;24.69
13581;BME280;6861;46.170;7.222;2022-08-03T10:53:14;95873.63;;;37.48;24.78
13581;BME280;6861;46.170;7.222;2022-08-03T10:55:43;95863.59;;;37.45;24.77
13581;BME280;6861;46.170;7.222;2022-08-03T10:58:55;95861.56;;;37.36;24.56
13581;BME280;6861;46.170;7.222;2022-08-03T11:01:49;95857.25;;;37.26;24.51
13581;BME280;6861;46.170;7.222;2022-08-03T11:04:17;95856.38;;;37.17;24.59
13581;BME280;6861;46.170;7.222;2022-08-03T11:06:46;95854.78;;;37.06;24.90
13581;BME280;6861;46.170;7.222;2022-08-03T11:09:15;95854.69;;;36.97;24.91
13581;BME280;6861;46.170;7.222;2022-08-03T11:11:45;95853.06;;;36.87;24.97
13581;BME280;6861;46.170;7.222;2022-08-03T11:14:14;95839.34;;;36.78;25.01
13581;BME280;6861;46.170;7.222;2022-08-03T11:16:43;95836.81;;;36.71;25.31
13581;BME280;6861;46.170;7.222;2022-08-03T11:19:13;95832.47;;;36.61;25.49
13581;BME280;6861;46.170;7.222;2022-08-03T11:21:54;95829.94;;;36.54;25.22
13581;BME280;6861;46.170;7.222;2022-08-03T11:25:01;95821.66;;;36.44;25.37
13581;BME280;6861;46.170;7.222;2022-08-03T11:27:31;95814.50;;;36.38;25.52
13581;BME280;6861;46.170;7.222;2022-08-03T11:30:01;95814.63;;;36.34;25.47
13581;BME280;6861;46.170;7.222;2022-08-03T11:32:56;95813.63;;;36.28;25.54
13581;BME280;6861;46.170;7.222;2022-08-03T11:35:24;95816.88;;;36.23;25.50
13581;BME280;6861;46.170;7.222;2022-08-03T11:38:08;95805.00;;;36.17;25.59
13581;BME280;6861;46.170;7.222;2022-08-03T11:40:38;95807.06;;;36.13;25.42
13581;BME280;6861;46.170;7.222;2022-08-03T11:43:07;95795.50;;;36.09;25.46
13581;BME280;6861;46.170;7.222;2022-08-03T11:45:35;95793.31;;;36.04;25.53
13581;BME280;6861;46.170;7.222;2022-08-03T11:48:14;95784.84;;;36.02;25.40
13581;BME280;6861;46.170;7.222;2022-08-03T11:50:42;95787.22;;;36.00;25.46
13581;BME280;6861;46.170;7.222;2022-08-03T11:53:14;95789.19;;;35.99;25.41
13581;BME280;6861;46.170;7.222;2022-08-03T11:55:42;95777.19;;;35.97;25.36
13581;BME280;6861;46.170;7.222;2022-08-03T11:58:19;95769.34;;;35.99;25.65
13581;BME280;6861;46.170;7.222;2022-08-03T12:00:46;95767.72;;;36.01;25.72
13581;BME280;6861;46.170;7.222;2022-08-03T12:03:14;95757.59;;;36.02;25.75
13581;BME280;6861;46.170;7.222;2022-08-03T12:05:44;95767.63;;;36.05;25.91
13581;BME280;6861;46.170;7.222;2022-08-03T12:08:13;95759.78;;;36.07;25.66
13581;BME280;6861;46.170;7.222;2022-08-03T12:10:47;95761.19;;;36.11;25.89
13581;BME280;6861;46.170;7.222;2022-08-03T12:13:15;95759.22;;;36.12;25.69
13581;BME280;6861;46.170;7.222;2022-08-03T12:15:49;95752.91;;;36.15;25.57
13581;BME280;6861;46.170;7.222;2022-08-03T12:18:18;95747.00;;;36.17;25.44
13581;BME280;6861;46.170;7.222;2022-08-03T12:20:46;95749.31;;;36.18;25.53
13581;BME280;6861;46.170;7.222;2022-08-03T12:23:14;95750.41;;;36.21;25.14
13581;BME280;6861;46.170;7.222;2022-08-03T12:25:43;95740.69;;;36.20;24.98
13581;BME280;6861;46.170;7.222;2022-08-03T12:28:14;95736.00;;;36.20;25.18
13581;BME280;6861;46.170;7.222;2022-08-03T12:30:46;95736.00;;;36.20;25.34
13581;BME280;6861;46.170;7.222;2022-08-03T12:33:22;95740.56;;;36.23;25.26
13581;BME280;6861;46.170;7.222;2022-08-03T12:36:01;95740.25;;;36.21;25.14
13581;BME280;6861;46.170;7.222;2022-08-03T12:38:30;95733.59;;;36.22;25.07
13581;BME280;6861;46.170;7.222;2022-08-03T12:41:03;95736.66;;;36.24;25.16
13581;BME280;6861;46.170;7.222;2022-08-03T12:43:30;95729.69;;;36.23;25.27
13581;BME280;6861;46.170;7.222;2022-08-03T12:46:12;95716.38;;;36.25;24.79
13581;BME280;6861;46.170;7.222;2022-08-03T12:49:03;95723.34;;;36.26;24.93
13581;BME280;6861;46.170;7.222;2022-08-03T12:51:32;95728.81;;;36.26;24.93
13581;BME280;6861;46.170;7.222;2022-08-03T12:53:59;95728.03;;;36.26;24.76
13581;BME280;6861;46.170;7.222;2022-08-03T12:56:26;95728.81;;;36.26;25.01
13581;BME280;6861;46.170;7.222;2022-08-03T12:58:53;95729.59;;;36.27;24.91
13581;BME280;6861;46.170;7.222;2022-08-03T13:01:22;95731.88;;;36.28;25.09
13581;BME280;6861;46.170;7.222;2022-08-03T13:03:52;95732.66;;;36.29;24.93
13581;BME280;6861;46.170;7.222;2022-08-03T13:06:21;95726.75;;;36.30;24.78
13581;BME280;6861;46.170;7.222;2022-08-03T13:08:49;95735.25;;;36.32;24.95
13581;BME280;6861;46.170;7.222;2022-08-03T13:11:27;95727.09;;;36.32;24.67
13581;BME280;6861;46.170;7.222;2022-08-03T13:13:54;95732.53;;;36.32;24.64
13581;BME280;6861;46.170;7.222;2022-08-03T13:16:23;95736.78;;;36.33;24.73
13581;BME280;6861;46.170;7.222;2022-08-03T13:18:50;95734.81;;;36.34;24.72
13581;BME280;6861;46.170;7.222;2022-08-03T13:21:19;95726.19;;;36.35;24.57
13581;BME280;6861;46.170;7.222;2022-08-03T13:23:47;95723.47;;;36.35;24.93